Time;durP1;ratioP1;P1;durP2;ratioP2;P2;SDS_P1;SDS_P2;PMS_P1;PMS_P2;Temp;Humidity;BMP_temperature;BMP_pressure;BME280_temperature;BME280_humidity;BME280_pressure;Samples;Min_cycle;Max_cycle;Signal;HPM_P1;HPM_P2
2023/04/24 00:00:34;;;;;;;12.05;2.05;;;21.30;99.90;;;;;;5068735;28;20035;-68
2023/04/24 00:03:02;;;;;;;10.00;2.05;;;21.60;99.90;;;;;;5066767;28;20032;-68
2023/04/24 00:05:30;;;;;;;6.65;1.88;;;21.80;99.90;;;;;;5066675;28;20024;-68
2023/04/24 00:07:57;;;;;;;3.40;1.73;;;22.30;99.90;;;;;;5066080;28;20035;-69
2023/04/24 00:10:24;;;;;;;6.47;1.88;;;22.40;99.90;;;;;;5067340;28;20032;-68
2023/04/24 00:12:52;;;;;;;5.22;1.25;;;22.60;99.90;;;;;;5065758;28;20020;-68
2023/04/24 00:15:19;;;;;;;6.30;1.80;;;22.50;99.90;;;;;;5066507;28;20016;-67
2023/04/24 00:17:47;;;;;;;6.53;1.30;;;22.60;99.90;;;;;;5070008;28;20352;-68
2023/04/24 00:20:15;;;;;;;4.68;1.92;;;22.60;99.90;;;;;;5070287;28;20017;-68
2023/04/24 00:22:42;;;;;;;5.63;1.80;;;22.60;99.90;;;;;;5070506;28;20089;-66
2023/04/24 00:25:10;;;;;;;4.35;1.52;;;22.60;99.90;;;;;;5070190;28;20046;-66
2023/04/24 00:27:38;;;;;;;3.70;1.20;;;22.40;99.90;;;;;;5060978;28;20039;-67
2023/04/24 00:30:06;;;;;;;9.43;1.80;;;22.40;99.90;;;;;;5059270;28;20131;-69
2023/04/24 00:32:34;;;;;;;7.30;1.45;;;22.20;99.90;;;;;;5066590;28;20029;-69
2023/04/24 00:35:01;;;;;;;9.13;1.52;;;21.90;99.90;;;;;;5066524;28;20023;-68
2023/04/24 00:37:29;;;;;;;3.53;2.00;;;21.80;99.90;;;;;;5061483;28;20050;-68
2023/04/24 00:39:56;;;;;;;5.93;2.45;;;21.70;99.90;;;;;;5067008;28;20107;-69
2023/04/24 00:42:24;;;;;;;4.75;2.05;;;21.60;99.90;;;;;;5065071;28;20107;-68
2023/04/24 00:44:52;;;;;;;14.18;2.67;;;21.50;99.90;;;;;;5066096;28;20017;-66
2023/04/24 00:47:21;;;;;;;5.70;1.60;;;21.50;99.90;;;;;;5062758;28;20044;-67
2023/04/24 00:49:49;;;;;;;8.00;1.55;;;21.60;99.90;;;;;;5051759;28;20043;-66
2023/04/24 00:52:17;;;;;;;8.35;1.42;;;21.70;99.90;;;;;;5069668;28;20048;-67
2023/04/24 00:54:48;;;;;;;5.75;1.70;;;21.70;99.90;;;;;;5066886;28;20423;-67
2023/04/24 00:57:17;;;;;;;9.02;2.55;;;21.80;99.90;;;;;;5064852;28;20036;-67
2023/04/24 00:59:45;;;;;;;4.45;1.75;;;21.80;99.90;;;;;;5065576;28;20469;-67
2023/04/24 01:02:15;;;;;;;4.50;1.50;;;21.80;99.90;;;;;;5063674;28;20067;-68
2023/04/24 01:04:43;;;;;;;3.97;1.55;;;21.80;99.90;;;;;;5062441;28;20115;-68
2023/04/24 01:07:11;;;;;;;8.13;1.73;;;21.80;99.90;;;;;;5063536;28;20107;-66
2023/04/24 01:09:41;;;;;;;9.65;1.50;;;21.90;99.90;;;;;;5068319;28;20548;-67
2023/04/24 01:12:09;;;;;;;6.80;1.50;;;22.00;99.90;;;;;;5063986;28;20036;-67
2023/04/24 01:14:38;;;;;;;9.43;2.25;;;22.20;99.90;;;;;;5065847;28;20021;-69
2023/04/24 01:17:05;;;;;;;3.53;1.42;;;22.30;99.90;;;;;;5065123;28;20484;-69
2023/04/24 01:19:33;;;;;;;4.70;1.45;;;22.30;99.90;;;;;;5066227;28;20048;-68
2023/04/24 01:22:03;;;;;;;6.78;1.85;;;22.30;99.90;;;;;;5064296;28;20104;-69
2023/04/24 01:24:31;;;;;;;11.73;1.70;;;22.20;99.90;;;;;;5068215;28;20032;-67
2023/04/24 01:26:58;;;;;;;6.55;1.60;;;22.10;99.90;;;;;;5067584;28;20392;-67
2023/04/24 01:29:26;;;;;;;3.95;1.30;;;22.10;99.90;;;;;;5058385;28;20097;-67
2023/04/24 01:31:54;;;;;;;4.15;1.33;;;22.30;99.90;;;;;;5068899;28;20044;-67
2023/04/24 01:34:21;;;;;;;5.03;1.15;;;22.50;99.90;;;;;;5068522;28;20032;-68
2023/04/24 01:36:50;;;;;;;5.18;1.15;;;22.60;99.90;;;;;;5075042;28;20392;-68
2023/04/24 01:39:18;;;;;;;4.35;1.48;;;22.60;99.90;;;;;;5062692;28;20028;-69
2023/04/24 01:41:45;;;;;;;6.30;1.20;;;22.50;99.90;;;;;;5061253;28;20033;-68
2023/04/24 01:44:13;;;;;;;5.22;1.17;;;22.50;99.90;;;;;;5063165;28;20074;-68
2023/04/24 01:46:40;;;;;;;3.22;1.20;;;22.30;99.90;;;;;;5064354;28;20024;-68
2023/04/24 01:49:08;;;;;;;8.10;2.08;;;22.40;99.90;;;;;;5066711;28;20028;-69
2023/04/24 01:51:35;;;;;;;7.25;0.95;;;22.50;99.90;;;;;;5072601;28;20044;-71
2023/04/24 01:54:03;;;;;;;7.78;1.20;;;22.50;99.90;;;;;;5067019;28;20012;-67
2023/04/24 01:56:31;;;;;;;6.25;1.23;;;22.70;99.90;;;;;;5064105;28;20024;-67
2023/04/24 01:59:00;;;;;;;5.47;1.63;;;22.80;99.90;;;;;;5065296;28;20477;-67
2023/04/24 02:01:27;;;;;;;4.55;1.25;;;22.80;99.90;;;;;;5062054;28;20035;-66
2023/04/24 02:03:54;;;;;;;8.85;1.50;;;22.70;99.90;;;;;;5064358;28;20493;-65
2023/04/24 02:06:23;;;;;;;4.43;1.13;;;22.60;99.90;;;;;;5064119;28;20031;-65
2023/04/24 02:08:50;;;;;;;4.95;1.13;;;22.40;99.90;;;;;;5062130;28;20074;-65
2023/04/24 02:11:18;;;;;;;10.73;1.75;;;22.20;99.90;;;;;;5067893;28;20040;-68
2023/04/24 02:13:46;;;;;;;7.55;1.42;;;22.30;99.90;;;;;;5062141;28;20024;-65
2023/04/24 02:16:13;;;;;;;6.60;1.42;;;22.50;99.90;;;;;;5064125;28;20103;-64
2023/04/24 02:18:40;;;;;;;4.45;1.10;;;22.70;99.90;;;;;;5064452;28;20021;-66
2023/04/24 02:21:07;;;;;;;5.78;1.40;;;22.90;99.90;;;;;;5070224;28;20087;-67
2023/04/24 02:23:35;;;;;;;3.47;1.02;;;23.10;99.90;;;;;;5064533;28;20028;-70
2023/04/24 02:26:02;;;;;;;5.38;1.25;;;23.30;99.90;;;;;;5062780;28;20028;-71
2023/04/24 02:28:29;;;;;;;6.50;1.23;;;23.30;99.90;;;;;;5063764;28;20028;-73
2023/04/24 02:30:57;;;;;;;1.83;0.90;;;23.30;99.90;;;;;;5068430;28;20122;-67
2023/04/24 02:33:24;;;;;;;5.72;1.13;;;23.30;99.90;;;;;;5071167;28;20385;-68
2023/04/24 02:35:51;;;;;;;4.35;1.00;;;23.30;99.90;;;;;;5068798;28;20033;-68
2023/04/24 02:38:18;;;;;;;4.00;1.05;;;23.30;99.90;;;;;;5081553;28;20031;-67
2023/04/24 02:40:46;;;;;;;5.68;1.35;;;23.20;99.90;;;;;;5068037;28;20025;-69
2023/04/24 02:43:13;;;;;;;1.75;0.80;;;23.10;99.90;;;;;;5064506;28;20017;-69
2023/04/24 02:45:40;;;;;;;3.03;0.82;;;22.80;99.90;;;;;;5063771;28;20024;-65
2023/04/24 02:48:08;;;;;;;4.82;0.80;;;22.70;99.90;;;;;;5065899;28;20162;-66
2023/04/24 02:50:35;;;;;;;7.18;0.93;;;22.80;99.90;;;;;;5068597;28;20378;-67
2023/04/24 02:53:03;;;;;;;5.32;1.15;;;22.90;99.90;;;;;;5063736;28;20464;-68
2023/04/24 02:55:30;;;;;;;2.63;0.73;;;23.10;99.90;;;;;;5068715;28;20033;-69
2023/04/24 02:57:58;;;;;;;6.38;1.02;;;23.50;99.90;;;;;;5071593;28;20092;-67
2023/04/24 03:00:25;;;;;;;7.72;1.67;;;23.80;99.90;;;;;;5068987;28;20465;-69
2023/04/24 03:02:53;;;;;;;5.57;1.73;;;23.90;99.90;;;;;;5069046;28;20024;-70
2023/04/24 03:05:20;;;;;;;6.72;1.48;;;23.90;99.90;;;;;;5069915;28;20036;-68
2023/04/24 03:07:47;;;;;;;4.65;1.27;;;23.60;99.90;;;;;;5070116;28;20028;-69
2023/04/24 03:10:15;;;;;;;5.65;1.33;;;23.40;99.90;;;;;;5066314;28;20041;-69
2023/04/24 03:12:42;;;;;;;7.30;0.90;;;23.20;99.90;;;;;;5065693;28;20024;-67
2023/04/24 03:15:10;;;;;;;4.78;1.00;;;23.10;99.90;;;;;;5070504;28;20024;-68
2023/04/24 03:17:38;;;;;;;5.28;0.88;;;23.20;99.90;;;;;;5068633;28;20452;-66
2023/04/24 03:20:06;;;;;;;5.85;1.55;;;23.10;99.90;;;;;;5066668;28;20032;-68
2023/04/24 03:22:34;;;;;;;12.90;2.53;;;23.10;99.90;;;;;;5073325;28;20025;-70
2023/04/24 03:25:02;;;;;;;12.85;2.08;;;22.80;99.90;;;;;;5067675;28;20093;-68
2023/04/24 03:27:30;;;;;;;9.52;1.88;;;22.40;99.90;;;;;;5071242;28;20021;-69
2023/04/24 03:29:57;;;;;;;8.23;2.60;;;22.10;99.90;;;;;;5068043;28;20033;-69
2023/04/24 03:32:25;;;;;;;8.73;2.08;;;22.10;99.90;;;;;;5069815;28;20550;-68
2023/04/24 03:34:53;;;;;;;8.10;2.03;;;22.10;99.90;;;;;;5065736;28;20105;-69
2023/04/24 03:37:20;;;;;;;12.15;2.08;;;22.00;99.90;;;;;;5061883;28;20037;-70
2023/04/24 03:39:48;;;;;;;7.30;1.25;;;22.00;99.90;;;;;;5057409;28;20024;-69
2023/04/24 03:42:15;;;;;;;13.88;1.58;;;22.00;99.90;;;;;;5069114;28;20028;-70
2023/04/24 03:44:43;;;;;;;11.70;1.90;;;21.80;99.90;;;;;;5066035;28;20048;-68
2023/04/24 03:47:10;;;;;;;9.00;1.38;;;21.80;99.90;;;;;;5054864;28;20025;-69
2023/04/24 03:49:38;;;;;;;8.27;1.42;;;21.70;99.90;;;;;;5063104;28;20127;-68
2023/04/24 03:52:05;;;;;;;12.00;1.60;;;21.60;99.90;;;;;;5066910;28;20043;-69
2023/04/24 03:54:33;;;;;;;4.78;1.30;;;21.50;99.90;;;;;;5060496;28;20025;-69
2023/04/24 03:57:01;;;;;;;5.43;1.40;;;21.50;99.90;;;;;;5055220;28;20028;-69
2023/04/24 03:59:28;;;;;;;8.73;2.08;;;21.40;99.90;;;;;;5057583;28;20024;-68
2023/04/24 04:01:56;;;;;;;7.38;2.00;;;21.30;99.90;;;;;;5052754;28;20142;-70
2023/04/24 04:04:23;;;;;;;9.30;2.08;;;21.10;99.90;;;;;;5064654;28;20032;-68
2023/04/24 04:06:51;;;;;;;13.25;1.70;;;21.10;99.90;;;;;;5070816;28;20024;-67
2023/04/24 04:09:19;;;;;;;11.98;1.60;;;21.10;99.90;;;;;;5065091;28;20017;-69
2023/04/24 04:11:46;;;;;;;7.38;1.33;;;21.20;99.90;;;;;;5063945;28;20120;-69
2023/04/24 04:14:14;;;;;;;4.90;1.00;;;21.30;99.90;;;;;;5063527;28;20116;-69
2023/04/24 04:16:41;;;;;;;7.82;1.50;;;21.40;99.90;;;;;;5061550;28;20040;-68
2023/04/24 04:19:09;;;;;;;4.53;1.25;;;21.50;99.90;;;;;;5064931;28;20024;-68
2023/04/24 04:21:36;;;;;;;5.20;1.58;;;21.50;99.90;;;;;;5066503;28;20020;-67
2023/04/24 04:24:05;;;;;;;7.50;1.83;;;21.50;99.90;;;;;;5066166;28;20028;-67
2023/04/24 04:26:32;;;;;;;7.22;1.48;;;21.40;99.90;;;;;;5067009;28;20066;-69
2023/04/24 04:29:00;;;;;;;11.27;2.15;;;21.40;99.90;;;;;;5065539;28;20036;-68
2023/04/24 04:31:28;;;;;;;5.63;1.30;;;21.40;99.90;;;;;;5065708;28;20040;-67
2023/04/24 04:33:55;;;;;;;11.30;1.48;;;21.40;99.90;;;;;;5068336;28;20025;-67
2023/04/24 04:36:23;;;;;;;8.55;1.20;;;21.50;99.90;;;;;;5066842;28;20599;-67
2023/04/24 04:38:51;;;;;;;7.53;1.95;;;21.50;99.90;;;;;;5065285;28;20052;-67
2023/04/24 04:41:20;;;;;;;4.70;1.10;;;21.60;99.90;;;;;;5066559;28;20071;-67
2023/04/24 04:43:47;;;;;;;4.72;0.90;;;21.60;99.90;;;;;;5067639;28;20154;-68
2023/04/24 04:46:15;;;;;;;3.90;0.85;;;21.70;99.90;;;;;;5062884;28;20094;-66
2023/04/24 04:48:43;;;;;;;10.77;3.45;;;21.70;99.90;;;;;;5062296;28;20020;-67
2023/04/24 04:51:10;;;;;;;9.00;1.50;;;21.50;99.90;;;;;;5065334;28;20070;-66
2023/04/24 04:53:38;;;;;;;7.95;1.27;;;21.30;99.90;;;;;;5062527;28;20032;-67
2023/04/24 04:56:05;;;;;;;4.68;1.17;;;21.00;99.90;;;;;;5066113;28;20055;-70
2023/04/24 04:58:33;;;;;;;6.43;1.88;;;20.90;99.90;;;;;;5050976;28;20147;-71
2023/04/24 05:01:00;;;;;;;8.18;2.17;;;20.60;99.90;;;;;;5063299;28;20056;-71
2023/04/24 05:03:28;;;;;;;6.78;1.20;;;20.30;99.90;;;;;;5062135;28;20473;-70
2023/04/24 05:05:55;;;;;;;8.10;1.92;;;20.10;99.90;;;;;;5056497;28;20056;-70
2023/04/24 05:08:23;;;;;;;10.55;1.70;;;19.90;99.90;;;;;;5064156;28;20024;-70
2023/04/24 05:10:50;;;;;;;8.35;1.92;;;19.70;99.90;;;;;;5062302;28;20032;-70
2023/04/24 05:13:17;;;;;;;9.15;1.90;;;19.70;99.90;;;;;;5064060;28;20028;-70
2023/04/24 05:15:45;;;;;;;5.65;1.63;;;19.70;99.90;;;;;;5064575;28;20017;-70
2023/04/24 05:18:12;;;;;;;9.15;2.38;;;19.70;99.90;;;;;;5064925;28;20029;-71
2023/04/24 05:20:40;;;;;;;10.27;1.77;;;19.60;99.90;;;;;;5064048;28;20031;-71
2023/04/24 05:23:07;;;;;;;12.48;1.85;;;19.70;99.90;;;;;;5067673;28;20029;-71
2023/04/24 05:25:35;;;;;;;10.18;2.00;;;19.80;99.90;;;;;;5064932;28;20028;-70
2023/04/24 05:28:03;;;;;;;8.13;1.65;;;19.90;99.90;;;;;;5064035;28;20500;-71
2023/04/24 05:30:31;;;;;;;5.22;1.40;;;20.00;99.90;;;;;;5059558;28;20535;-72
2023/04/24 05:32:58;;;;;;;6.03;1.23;;;20.00;99.90;;;;;;5068053;28;20381;-72
2023/04/24 05:35:26;;;;;;;6.22;1.83;;;20.00;99.90;;;;;;5064536;28;20025;-72
2023/04/24 05:37:53;;;;;;;10.55;2.08;;;20.10;99.90;;;;;;5064643;28;20028;-70
2023/04/24 05:40:20;;;;;;;11.75;2.67;;;20.10;99.90;;;;;;5065245;28;20112;-72
2023/04/24 05:42:48;;;;;;;7.05;1.65;;;20.20;99.90;;;;;;5065220;28;20016;-71
2023/04/24 05:45:16;;;;;;;9.25;1.70;;;20.20;99.90;;;;;;5066946;28;20515;-71
2023/04/24 05:47:44;;;;;;;8.70;1.92;;;20.20;99.90;;;;;;5068862;28;20096;-70
2023/04/24 05:50:12;;;;;;;10.77;1.35;;;20.20;99.90;;;;;;5067623;28;20032;-70
2023/04/24 05:52:40;;;;;;;6.70;1.98;;;20.30;99.90;;;;;;5071790;28;20579;-71
2023/04/24 05:55:08;;;;;;;13.50;1.95;;;20.20;99.90;;;;;;5068319;28;20715;-73
2023/04/24 05:57:35;;;;;;;7.20;2.22;;;20.10;99.90;;;;;;5068594;28;20028;-70
2023/04/24 06:00:04;;;;;;;10.27;1.75;;;20.10;99.90;;;;;;5066131;28;20029;-69
2023/04/24 06:02:32;;;;;;;12.65;1.90;;;19.90;99.90;;;;;;5066450;28;20024;-71
2023/04/24 06:05:00;;;;;;;12.05;2.13;;;19.90;99.90;;;;;;5069409;28;20473;-70
2023/04/24 06:07:27;;;;;;;6.60;1.77;;;19.80;99.90;;;;;;5065997;28;20017;-70
2023/04/24 06:09:55;;;;;;;13.82;1.70;;;19.80;99.90;;;;;;5069823;28;20549;-71
2023/04/24 06:12:23;;;;;;;7.20;1.67;;;19.70;99.90;;;;;;5072600;28;20052;-71
2023/04/24 06:14:51;;;;;;;8.32;2.00;;;19.70;99.90;;;;;;5078454;28;20400;-72
2023/04/24 06:17:18;;;;;;;10.98;1.95;;;19.70;99.90;;;;;;5068805;28;20029;-66
2023/04/24 06:19:46;;;;;;;9.40;1.90;;;19.60;99.90;;;;;;5066881;28;20400;-71
2023/04/24 06:22:13;;;;;;;10.82;1.98;;;19.60;99.90;;;;;;5074151;28;20029;-67
2023/04/24 06:24:44;;;;;;;11.05;2.15;;;19.50;99.90;;;;;;5070061;28;20031;-68
2023/04/24 06:27:11;;;;;;;11.52;2.05;;;19.50;99.90;;;;;;5070263;28;20048;-67
2023/04/24 06:29:39;;;;;;;6.60;1.60;;;19.50;99.90;;;;;;5070398;28;20048;-67
2023/04/24 06:32:07;;;;;;;10.50;1.80;;;19.40;99.90;;;;;;5071331;28;20033;-66
2023/04/24 06:34:36;;;;;;;8.45;1.75;;;19.40;99.90;;;;;;5071396;28;20035;-67
2023/04/24 06:37:03;;;;;;;5.28;1.70;;;19.30;99.90;;;;;;5068489;28;20025;-70
2023/04/24 06:39:31;;;;;;;13.25;1.83;;;19.40;99.90;;;;;;5071370;28;20020;-70
2023/04/24 06:41:58;;;;;;;13.07;2.63;;;19.50;99.90;;;;;;5070394;28;20111;-71
2023/04/24 06:44:26;;;;;;;11.68;2.00;;;19.60;99.90;;;;;;5072598;28;20051;-71
2023/04/24 06:46:53;;;;;;;15.32;2.95;;;19.70;99.90;;;;;;5072095;28;20032;-69
2023/04/24 06:49:21;;;;;;;7.63;1.80;;;19.90;99.90;;;;;;5071932;28;20024;-69
2023/04/24 06:51:48;;;;;;;9.82;1.88;;;20.00;99.90;;;;;;5072114;28;20528;-70
2023/04/24 06:54:16;;;;;;;7.88;2.30;;;20.10;99.90;;;;;;5070961;28;20024;-71
2023/04/24 06:56:45;;;;;;;7.53;2.15;;;20.20;99.90;;;;;;5070219;28;20404;-70
2023/04/24 06:59:13;;;;;;;16.33;4.05;;;20.20;99.90;;;;;;5071236;28;20035;-69
2023/04/24 07:01:40;;;;;;;20.55;3.65;;;20.20;99.90;;;;;;5071669;28;20547;-69
2023/04/24 07:04:07;;;;;;;16.20;3.50;;;20.10;99.90;;;;;;5071893;28;20034;-70
2023/04/24 07:06:37;;;;;;;13.10;2.63;;;20.00;99.90;;;;;;5079404;28;20376;-69
2023/04/24 07:09:04;;;;;;;16.98;3.08;;;19.90;99.90;;;;;;5073104;28;20028;-71
2023/04/24 07:11:32;;;;;;;16.90;3.28;;;19.70;99.90;;;;;;5071613;28;20028;-72
2023/04/24 07:14:00;;;;;;;17.50;3.15;;;19.60;99.90;;;;;;5069388;28;20032;-67
2023/04/24 07:16:27;;;;;;;23.35;2.95;;;19.50;99.90;;;;;;5069715;28;20492;-67
2023/04/24 07:18:54;;;;;;;20.90;3.63;;;19.30;99.90;;;;;;5071814;28;20028;-69
2023/04/24 07:21:22;;;;;;;19.25;3.50;;;19.30;99.90;;;;;;5071102;28;20091;-68
2023/04/24 07:23:49;;;;;;;18.73;2.88;;;19.20;99.90;;;;;;5066524;28;20538;-69
2023/04/24 07:26:17;;;;;;;15.57;2.50;;;19.10;99.90;;;;;;5066833;28;20088;-69
2023/04/24 07:28:45;;;;;;;20.23;3.15;;;19.10;99.90;;;;;;5066594;28;20024;-69
2023/04/24 07:31:12;;;;;;;15.02;3.90;;;19.10;99.90;;;;;;5067847;28;20750;-69
2023/04/24 07:33:40;;;;;;;14.27;2.90;;;19.00;99.90;;;;;;5067599;28;20039;-68
2023/04/24 07:36:07;;;;;;;17.65;4.18;;;19.00;99.90;;;;;;5076100;28;20028;-69
2023/04/24 07:38:35;;;;;;;17.90;3.13;;;19.00;99.90;;;;;;5073928;28;20563;-67
2023/04/24 07:41:02;;;;;;;17.58;3.00;;;18.90;99.90;;;;;;5068862;28;20142;-68
2023/04/24 07:43:30;;;;;;;21.40;3.90;;;18.90;99.90;;;;;;5067461;28;20725;-70
2023/04/24 07:45:57;;;;;;;13.25;2.80;;;18.80;99.90;;;;;;5066445;28;20457;-68
2023/04/24 07:48:26;;;;;;;15.93;3.30;;;18.80;99.90;;;;;;5071028;28;20020;-68
2023/04/24 07:50:54;;;;;;;10.60;2.47;;;18.70;99.90;;;;;;5064815;28;20065;-67
2023/04/24 07:53:21;;;;;;;17.25;2.83;;;18.70;99.90;;;;;;5057804;28;20058;-69
2023/04/24 07:55:49;;;;;;;14.00;2.40;;;18.60;99.90;;;;;;5061079;28;20027;-72
2023/04/24 07:58:16;;;;;;;17.38;3.20;;;18.70;99.90;;;;;;5062424;28;20710;-72
2023/04/24 08:00:44;;;;;;;16.92;2.70;;;18.60;99.90;;;;;;5059106;28;20435;-68
2023/04/24 08:03:12;;;;;;;18.48;2.55;;;18.60;99.90;;;;;;5058967;28;20568;-67
2023/04/24 08:05:41;;;;;;;14.68;2.85;;;18.60;99.90;;;;;;5060472;28;20029;-65
2023/04/24 08:08:09;;;;;;;13.43;2.22;;;18.60;99.90;;;;;;5060394;28;20066;-65
2023/04/24 08:10:37;;;;;;;14.85;3.83;;;18.50;99.90;;;;;;5061633;28;20497;-65
2023/04/24 08:13:04;;;;;;;13.65;2.92;;;18.50;99.90;;;;;;5067411;28;20078;-66
2023/04/24 08:15:31;;;;;;;18.17;3.05;;;18.60;99.90;;;;;;5068256;28;20030;-65
2023/04/24 08:17:59;;;;;;;12.85;3.03;;;18.60;99.90;;;;;;5066303;28;20481;-67
2023/04/24 08:20:27;;;;;;;20.27;2.35;;;18.50;99.90;;;;;;5066630;28;20040;-65
2023/04/24 08:22:55;;;;;;;14.98;2.47;;;18.50;99.90;;;;;;5066137;28;20024;-61
2023/04/24 08:25:24;;;;;;;24.33;3.42;;;18.50;99.90;;;;;;5063727;28;20358;-62
2023/04/24 08:27:52;;;;;;;16.30;4.75;;;18.50;99.90;;;;;;5060752;28;20665;-61
2023/04/24 08:30:20;;;;;;;9.75;2.42;;;18.40;99.90;;;;;;5057591;28;21918;-60
2023/04/24 08:32:48;;;;;;;16.40;2.45;;;18.40;99.90;;;;;;5066295;28;20501;-68
2023/04/24 08:35:15;;;;;;;11.38;2.88;;;18.40;99.90;;;;;;5066405;28;20036;-66
2023/04/24 08:37:42;;;;;;;12.30;2.33;;;18.40;99.90;;;;;;5065651;28;20035;-66
2023/04/24 08:40:21;;;;;;;18.40;2.63;;;18.40;99.90;;;;;;5064556;28;20480;-66
2023/04/24 08:42:50;;;;;;;13.57;2.40;;;18.40;99.90;;;;;;5062479;28;20504;-64
2023/04/24 08:45:17;;;;;;;13.43;2.22;;;18.30;99.90;;;;;;5064086;28;20082;-65
2023/04/24 08:47:45;;;;;;;6.93;1.77;;;18.30;99.90;;;;;;5062749;28;20031;-66
2023/04/24 08:50:12;;;;;;;10.30;2.15;;;18.30;99.90;;;;;;5066943;28;20048;-63
2023/04/24 08:52:41;;;;;;;8.57;1.67;;;18.20;99.90;;;;;;5068983;28;20066;-69
2023/04/24 08:55:09;;;;;;;7.22;1.63;;;18.20;99.90;;;;;;5064207;28;20039;-69
2023/04/24 08:57:39;;;;;;;5.60;1.63;;;18.10;99.90;;;;;;5062306;28;20454;-66
2023/04/24 09:00:08;;;;;;;11.02;2.85;;;18.10;99.90;;;;;;5063341;28;20028;-65
2023/04/24 09:02:35;;;;;;;10.38;2.28;;;18.00;99.90;;;;;;5063031;28;20017;-67
2023/04/24 09:05:03;;;;;;;15.15;1.70;;;17.80;99.90;;;;;;5060203;28;20132;-64
2023/04/24 09:07:34;;;;;;;7.32;1.45;;;17.70;99.90;;;;;;5068195;28;20025;-64
2023/04/24 09:10:03;;;;;;;7.50;1.55;;;17.70;99.90;;;;;;5066702;28;20112;-63
2023/04/24 09:12:30;;;;;;;13.07;2.80;;;17.60;99.90;;;;;;5069240;28;20032;-65
2023/04/24 09:14:58;;;;;;;9.63;2.05;;;17.60;99.90;;;;;;5069336;28;20024;-64
2023/04/24 09:17:28;;;;;;;6.03;1.65;;;17.60;99.90;;;;;;5051208;28;20111;-65
2023/04/24 09:19:56;;;;;;;5.10;1.40;;;17.60;99.90;;;;;;5067489;28;20647;-64
2023/04/24 09:22:24;;;;;;;12.65;2.00;;;17.60;99.90;;;;;;5071785;28;20059;-65
2023/04/24 09:25:03;;;;;;;12.85;2.13;;;17.60;99.90;;;;;;5067869;28;20542;-64
2023/04/24 09:27:31;;;;;;;11.70;2.08;;;17.60;99.90;;;;;;5059564;28;20485;-69
2023/04/24 09:29:59;;;;;;;10.23;1.70;;;17.70;99.90;;;;;;5063403;28;20024;-72
2023/04/24 09:32:28;;;;;;;9.75;1.67;;;17.70;99.90;;;;;;5064593;28;20039;-67
2023/04/24 09:35:16;;;;;;;11.30;2.45;;;17.70;99.90;;;;;;5061467;28;20454;-69
2023/04/24 09:37:44;;;;;;;12.32;1.88;;;17.80;99.90;;;;;;5064260;28;20031;-64
2023/04/24 09:40:17;;;;;;;12.80;2.13;;;17.80;99.90;;;;;;5068319;28;20020;-65
2023/04/24 09:42:47;;;;;;;9.00;1.50;;;17.80;99.90;;;;;;5061881;28;20021;-66
2023/04/24 09:45:14;;;;;;;11.63;2.28;;;17.80;99.90;;;;;;5065139;28;20036;-63
2023/04/24 09:47:42;;;;;;;9.88;2.97;;;17.80;99.90;;;;;;5064327;28;20520;-64
2023/04/24 09:50:17;;;;;;;7.63;1.20;;;17.80;99.90;;;;;;5062167;28;20071;-65
2023/04/24 09:53:10;;;;;;;10.40;1.83;;;17.80;99.90;;;;;;5065540;28;20033;-65
2023/04/24 09:55:50;;;;;;;8.05;1.52;;;17.80;99.90;;;;;;5060124;28;20063;-64
2023/04/24 09:58:17;;;;;;;9.98;2.45;;;17.80;99.90;;;;;;5062517;28;20668;-65
2023/04/24 10:00:47;;;;;;;6.80;1.35;;;17.80;99.90;;;;;;5064920;28;20029;-66
2023/04/24 10:03:14;;;;;;;11.95;1.60;;;17.70;99.90;;;;;;5064554;28;20015;-62
2023/04/24 10:05:43;;;;;;;5.00;1.40;;;17.70;99.90;;;;;;5062728;28;20028;-62
2023/04/24 10:08:13;;;;;;;4.65;1.52;;;17.70;99.90;;;;;;5061511;28;20040;-66
2023/04/24 10:10:43;;;;;;;11.55;1.92;;;17.70;99.90;;;;;;5061188;28;20119;-66
2023/04/24 10:13:15;;;;;;;6.65;1.77;;;17.70;99.90;;;;;;5063344;28;20032;-66
2023/04/24 10:15:43;;;;;;;7.22;1.45;;;17.70;99.90;;;;;;5066858;28;20055;-66
2023/04/24 10:18:11;;;;;;;11.35;2.67;;;17.70;99.90;;;;;;5067122;28;20035;-66
2023/04/24 10:20:41;;;;;;;9.20;1.70;;;17.60;99.90;;;;;;5059771;28;20028;-66
2023/04/24 10:23:08;;;;;;;9.32;2.40;;;17.70;99.90;;;;;;5062642;28;20021;-66
2023/04/24 10:25:37;;;;;;;10.43;2.38;;;17.60;99.90;;;;;;5064271;28;20056;-66
2023/04/24 10:28:05;;;;;;;12.90;2.03;;;17.60;99.90;;;;;;5064866;28;20028;-66
2023/04/24 10:30:38;;;;;;;7.72;1.40;;;17.50;99.90;;;;;;5065099;28;20036;-66
2023/04/24 10:33:08;;;;;;;6.70;1.40;;;17.40;99.90;;;;;;5061638;28;20083;-66
2023/04/24 10:35:48;;;;;;;10.60;1.67;;;17.40;99.90;;;;;;5056555;28;20031;-65
2023/04/24 10:38:24;;;;;;;9.18;2.08;;;17.20;99.90;;;;;;5065942;28;20065;-65
2023/04/24 10:40:51;;;;;;;5.50;1.33;;;17.10;99.90;;;;;;5065293;28;20020;-65
2023/04/24 10:43:20;;;;;;;13.20;1.90;;;16.80;99.90;;;;;;5063735;28;20036;-65
2023/04/24 10:46:05;;;;;;;5.32;1.25;;;16.70;99.90;;;;;;5062462;28;20020;-65
2023/04/24 10:48:34;;;;;;;10.77;1.52;;;16.50;99.90;;;;;;5058862;28;20556;-66
2023/04/24 10:51:01;;;;;;;7.70;1.60;;;16.40;99.90;;;;;;5063576;28;20040;-72
2023/04/24 10:53:30;;;;;;;10.18;3.20;;;16.20;99.90;;;;;;5068883;28;20024;-71
2023/04/24 10:56:13;;;;;;;8.98;1.50;;;16.10;99.90;;;;;;5066996;28;20028;-65
2023/04/24 10:58:54;;;;;;;10.00;2.40;;;16.00;99.90;;;;;;5063752;28;20043;-66
2023/04/24 11:01:26;;;;;;;8.70;1.85;;;16.00;99.90;;;;;;5065384;28;20024;-65
2023/04/24 11:03:58;;;;;;;7.05;1.50;;;15.90;99.90;;;;;;5069198;28;20032;-65
2023/04/24 11:06:35;;;;;;;7.88;2.30;;;15.70;99.90;;;;;;5062900;28;20055;-65
2023/04/24 11:09:12;;;;;;;11.82;2.20;;;15.50;99.90;;;;;;5055407;28;20595;-65
2023/04/24 11:11:46;;;;;;;6.20;2.13;;;15.50;99.90;;;;;;5061752;28;20063;-66
2023/04/24 11:14:16;;;;;;;7.88;1.90;;;15.40;99.90;;;;;;5053178;28;20096;-65
2023/04/24 11:16:57;;;;;;;12.38;2.15;;;15.30;99.90;;;;;;5047537;28;20037;-65
2023/04/24 11:19:28;;;;;;;13.88;1.50;;;15.30;99.90;;;;;;5051083;28;20031;-66
2023/04/24 11:22:04;;;;;;;6.25;1.83;;;15.40;99.90;;;;;;5062062;28;20032;-66
2023/04/24 11:24:39;;;;;;;8.27;1.75;;;15.40;99.90;;;;;;5062174;28;20047;-65
2023/04/24 11:27:14;;;;;;;9.05;2.35;;;15.50;99.90;;;;;;5064933;28;20071;-65
2023/04/24 11:29:44;;;;;;;8.02;2.22;;;15.60;99.90;;;;;;5065464;28;20035;-65
2023/04/24 11:32:28;;;;;;;11.68;2.55;;;15.70;99.90;;;;;;5056180;28;20077;-65
2023/04/24 11:35:01;;;;;;;7.40;2.53;;;15.90;99.90;;;;;;5050702;28;20056;-65
2023/04/24 11:37:51;;;;;;;11.50;1.88;;;16.00;99.90;;;;;;5069464;28;20747;-66
2023/04/24 11:40:22;;;;;;;15.52;3.35;;;16.10;99.90;;;;;;5066740;28;20107;-65
2023/04/24 11:42:52;;;;;;;13.57;2.90;;;16.20;99.90;;;;;;5055574;28;20082;-65
2023/04/24 11:45:27;;;;;;;9.57;2.58;;;16.20;99.90;;;;;;5067234;28;20040;-65
2023/04/24 11:47:55;;;;;;;10.77;2.55;;;16.30;99.90;;;;;;5061599;28;20028;-67
2023/04/24 11:50:28;;;;;;;12.60;3.30;;;16.30;99.90;;;;;;5056287;28;20052;-66
2023/04/24 11:52:56;;;;;;;9.15;2.95;;;16.40;99.90;;;;;;5057702;28;20083;-66
2023/04/24 11:55:26;;;;;;;14.95;3.08;;;16.40;99.90;;;;;;5053443;28;20370;-64
2023/04/24 11:57:59;;;;;;;10.05;2.20;;;16.50;99.90;;;;;;5064607;28;20493;-65
2023/04/24 12:00:29;;;;;;;8.57;1.92;;;16.50;99.90;;;;;;5068615;28;20034;-65
2023/04/24 12:03:25;;;;;;;12.35;2.63;;;16.60;99.90;;;;;;5067200;28;20036;-65
2023/04/24 12:05:53;;;;;;;15.98;2.80;;;16.60;99.90;;;;;;5046531;28;20138;-65
2023/04/24 12:08:30;;;;;;;20.15;3.25;;;16.70;99.90;;;;;;5057796;28;20029;-65
2023/04/24 12:10:59;;;;;;;13.35;2.78;;;16.70;99.90;;;;;;5061893;28;20570;-65
2023/04/24 12:13:27;;;;;;;9.73;2.30;;;16.80;99.90;;;;;;5060784;28;20044;-66
2023/04/24 12:15:55;;;;;;;15.00;2.58;;;16.80;99.90;;;;;;5050523;28;20024;-66
2023/04/24 12:18:26;;;;;;;9.50;2.53;;;16.90;99.90;;;;;;5061246;28;20055;-66
2023/04/24 12:20:54;;;;;;;19.00;2.92;;;16.90;99.90;;;;;;5060850;28;20029;-66
2023/04/24 12:23:37;;;;;;;12.80;2.85;;;16.90;99.90;;;;;;5056585;28;20048;-66
2023/04/24 12:26:07;;;;;;;14.63;2.58;;;16.90;99.90;;;;;;5068766;28;20028;-65
2023/04/24 12:28:39;;;;;;;14.95;2.53;;;16.90;99.90;;;;;;5061670;28;20154;-65
2023/04/24 12:31:08;;;;;;;15.07;2.67;;;16.90;99.90;;;;;;5065325;28;20113;-66
2023/04/24 12:33:36;;;;;;;10.07;2.83;;;17.00;99.90;;;;;;5066891;28;20017;-66
2023/04/24 12:36:05;;;;;;;17.38;3.10;;;17.00;99.90;;;;;;5070473;28;20062;-65
2023/04/24 12:38:39;;;;;;;20.30;3.38;;;16.90;99.90;;;;;;5066738;28;20025;-66
2023/04/24 12:41:09;;;;;;;14.63;2.80;;;17.00;99.90;;;;;;5066560;28;20575;-66
2023/04/24 12:43:37;;;;;;;11.10;2.47;;;17.00;99.90;;;;;;5061676;28;20038;-66
2023/04/24 12:46:05;;;;;;;10.30;3.22;;;17.00;99.90;;;;;;5063829;28;20039;-66
2023/04/24 12:48:33;;;;;;;14.45;3.03;;;17.00;99.90;;;;;;5066990;28;20103;-66
2023/04/24 12:51:03;;;;;;;10.52;2.65;;;17.00;99.90;;;;;;5066457;28;20159;-67